PABE/BET METAR and TAF weather

Enter ICAO airport designator
Station Type Date Time Source
PABE METAR 2020/07/11 19:53 UTC NOAA

PABE 111953Z 23005KT 10SM FEW060 BKN120 16/11 A2978 RMK AO2 SLP087 T01560111


Station Type Date Time Source
PABE Decoded METAR 2020/07/11 19:53 UTC NOAA

BETHEL AIRPORT, AK, United States (PABE) 60-47N 161-50W 46M
Jul 11, 2020 - 03:53 PM EDT / 2020.07.11 1953 UTC
Wind: from the SW (230 degrees) at 6 MPH (5 KT):0
Visibility: 10 mile(s):0
Sky conditions: mostly cloudy
Temperature: 60.1 F (15.6 C)
Dew Point: 52.0 F (11.1 C)
Relative Humidity: 74%
Pressure (altimeter): 29.78 in. Hg (1008 hPa)
ob: PABE 111953Z 23005KT 10SM FEW060 BKN120 16/11 A2978 RMK AO2 SLP087 T01560111
cycle: 20

Station Type Date Time Source
PABE TAF 2020/07/11 18:28 UTC NOAA

TAF PABE 111726Z 1118/1218 30008KT P6SM SCT007 BKN010
FM112300 27009KT P6SM -SHRA VCTS SCT050CB BKN100
FM120600 28008KT P6SM FEW050 BKN100
FM121200 33006KT P6SM SCT025 BKN050

Example: see airport list